Crater Lake National Park, OR

7:05 AM PDT on September 21, 2014 (GMT -0700)
Klamath Agency on Wood River Canal | Change Station
CLOSE
Current Station
Personal Weather Station
Location: Chiloquin, OR
Elevation: 4170 ft
Nearby Weather Stations

Elev 4170 ft 42.58 °N, 121.93 °W | Updated 4 minutes ago

Clear
Clear
47.6 °F
Feels Like 48 °F
N
0.0
Wind Variable Wind from SE
Gusts 9.0 mph

Today
High -- | Low -- °F
--% Chance of Precip.
Yesterday
High -- | Low -- °F
Precip. -- in
6:53 AM 7:06 PM
Waning Crescent, 7% visible
Pressure 29.96 in
Visibility 10.0 miles
Clouds Clear
Windchill 48 °F
Dew Point 43 °F
Humidity 85%
Rainfall 0.00 in
Snow Depth 1 in , 0 in , 0 in
UV 0 out of 12
Pollen 4.00 out of 12
Air Quality Not available.
Flu Activity Not available.
METAR KLMT 211353Z 00000KT 10SM CLR 09/06 A3006 RMK AO2 SLP143 T00940061

More Conditions Fewer Conditions

Pressure 29.96 in
Visibility 10.0 miles
Clouds Clear
Windchill 48 °F
Dew Point 43 °F
Humidity 85%
Rainfall 0.00 in
Snow Depth 1 in , 0 in , 0 in
UV 0 out of 12
Pollen 4.00 out of 12
Air Quality Not available.
Flu Activity Not available.
METAR KLMT 211353Z 00000KT 10SM CLR 09/06 A3006 RMK AO2 SLP143 T00940061

More Conditions Fewer Conditions

10-Day Weather Forecast

Almanac

Astronomy

Sep. 21, 2014 Rise Set
Actual Time 6:53 AM PDT 7:06 PM PDT
Civil Twilight 6:25 AM PDT 7:34 PM PDT
Nautical Twilight 5:52 AM PDT 8:07 PM PDT
Astronomical Twilight 5:18 AM PDT 8:41 PM PDT
Moon 4:29 AM PDT 5:47 PM PDT
Length of Visible Light 13h 08m
Length of Day
12h 12m
Tomorrow will be 2m 51s shorter.
Waning Crescent, 7% of the Moon is Illuminated
Today
Waning Crescent
Sep 24
New
Oct 1
First Quarter
Oct 8
Full
Oct 15
Last Quarter

Today's Extremes

State Highs State Lows

Community

WunderPhotos

Upload Photos

1,755,147 photos uploaded!

Nearby

Snow Depth

Station Depth Elevation
Bigelow Camp 1 in 5120 ft
Strawberry 0 in 5760 ft
Peavine Ridge 0 in 3500 ft
Greenpoint 1 in 3200 ft
Mud Ridge 0 in 3800 ft

Earthquake Activity

City Distance Mag. Time & Date
No recent earthquake activity has been reported nearby.
Minimum magnitude displayed is 2.5.

Coastal Water Temperatures

Place Temperature
No Stations Reporting

Nearby Weather Stations